Terminal Aerodrome Forecast
Issued by NWS Portland, ME

Home | Current Version | Previous Version | Text Only | Print | Product List | Glossary On
Versions: 1 2 3 4 5 6 7 8 9 10 11 12 13 14 15 16 17 18 19 20 21 22 23 24 25 26 27 28 29 30
107
FTUS41 KGYX 241546 AAA
TAFCON
TAF AMD
KCON 241546Z 2416/2512 03012G20KT 5SM BR OVC015
      TEMPO 2416/2418 -FZRASN
     FM242100 36010G18KT 3SM -RA BR OVC012
     FM250800 33008KT 4SM BR OVC020=

USA.gov is the U.S. government's official web portal to all federal, state and local government web resources and services.